Latest Weather Observations for Kurnell

IDN60901

Issued at 9:11 am EST Wednesday 18 September 2019 (issued every 10 minutes, with the page automatically refreshed every 10 minutes)

About weather observations | Map of Sydney area stations | Latest observations for Sydney area | Other Formats
Station Details ID: 066043 Name: KURNELL AWS Lat: -34.00 Lon: 151.21 Height: 4.0 m
Data from the previous 72 hours. | See also: Recent months at Kurnell
Date/Time
EST
Temp
°C
App
Temp
°C
Dew
Point
°C
Rel
Hum
%
Delta-T
°C
Wind Press
QNH
hPa
Press
MSL
hPa
Rain since
9am
mm
Dir  Spd
km/h
Gust
km/h
Spd
kts
Gust
kts
18/09:00am - - - - - S 35 52 19 28 - - -
18/08:30am - - - - - S 39 52 21 28 - - -
18/08:00am - - - - - S 35 54 19 29 - - -
18/07:41am - - - - - S 35 54 19 29 - - -
18/07:30am - - - - - S 33 48 18 26 - - -
18/07:01am - - - - - S 33 52 18 28 - - -
18/07:00am - - - - - S 35 52 19 28 - - -
18/06:39am - - - - - S 33 52 18 28 - - -
18/06:30am - - - - - S 33 44 18 24 - - -
18/06:22am - - - - - SSE 35 54 19 29 - - -
18/06:00am - - - - - SSE 37 54 20 29 - - -
18/05:46am - - - - - S 33 52 18 28 - - -
18/05:30am - - - - - SSE 37 52 20 28 - - -
18/05:00am - - - - - SSE 37 54 20 29 - - -
18/04:30am - - - - - S 32 50 17 27 - - -
18/04:00am - - - - - SSE 33 52 18 28 - - -
18/03:39am - - - - - S 32 50 17 27 - - -
18/03:30am - - - - - SSE 28 41 15 22 - - -
18/03:00am - - - - - S 32 48 17 26 - - -
18/02:31am - - - - - S 35 56 19 30 - - -
18/02:30am - - - - - S 33 48 18 26 - - -
18/02:00am - - - - - S 37 56 20 30 - - -
18/01:30am - - - - - S 39 54 21 29 - - -
18/01:00am - - - - - SSE 37 50 20 27 - - -
18/12:43am - - - - - S 37 56 20 30 - - -
18/12:30am - - - - - S 39 52 21 28 - - -
18/12:00am - - - - - SSE 35 52 19 28 - - -
 
Date/Time
EST
Temp
°C
App
Temp
°C
Dew
Point
°C
Rel
Hum
%
Delta-T
°C
Wind Press
QNH
hPa
Press
MSL
hPa
Rain since
9am
mm
Dir  Spd
km/h
Gust
km/h
Spd
kts
Gust
kts
17/11:45pm - - - - - S 39 57 21 31 - - -
17/11:30pm - - - - - S 39 54 21 29 - - -
17/11:04pm - - - - - S 33 54 18 29 - - -
17/11:00pm - - - - - S 33 46 18 25 - - -
17/10:38pm - - - - - SSE 37 57 20 31 - - -
17/10:30pm - - - - - SSE 33 48 18 26 - - -
17/10:00pm - - - - - SSE 35 54 19 29 - - -
17/09:52pm - - - - - SSE 35 54 19 29 - - -
17/09:30pm - - - - - SSE 39 54 21 29 - - -
17/09:00pm - - - - - SSE 37 56 20 30 - - -
17/08:46pm - - - - - SSE 39 57 21 31 - - -
17/08:30pm - - - - - SSE 37 52 20 28 - - -
17/08:00pm - - - - - SSE 37 52 20 28 - - -
17/07:34pm - - - - - SSE 37 56 20 30 - - -
17/07:30pm - - - - - SSE 41 56 22 30 - - -
17/07:00pm - - - - - SSE 43 57 23 31 - - -
17/06:30pm - - - - - SSE 44 67 24 36 - - -
17/06:00pm - - - - - SSE 46 69 25 37 - - -
17/05:30pm - - - - - SE 44 65 24 35 - - -
17/05:03pm - - - - - SE 39 61 21 33 - - -
17/05:00pm - - - - - SE 39 56 21 30 - - -
17/04:31pm - - - - - SSE 37 56 20 30 - - -
17/04:30pm - - - - - SSE 35 52 19 28 - - -
17/04:06pm - - - - - SSE 35 54 19 29 - - -
17/04:00pm - - - - - SSE 35 50 19 27 - - -
17/03:30pm - - - - - SSE 30 41 16 22 - - -
17/03:02pm - - - - - SSE 33 56 18 30 - - -
17/03:00pm - - - - - SSE 33 48 18 26 - - -
17/02:30pm - - - - - SSE 35 48 19 26 - - -
17/02:00pm - - - - - SSE 30 41 16 22 - - -
17/01:30pm - - - - - SSE 33 48 18 26 - - -
17/01:00pm - - - - - SSE 28 50 15 27 - - -
17/12:30pm - - - - - SSE 28 39 15 21 - - -
17/12:00pm - - - - - SSE 30 43 16 23 - - -
17/11:30am - - - - - S 30 41 16 22 - - -
17/11:15am - - - - - S 30 48 16 26 - - -
17/11:00am - - - - - S 33 46 18 25 - - -
17/10:30am - - - - - SSW 28 41 15 22 - - -
17/10:00am - - - - - SSW 33 44 18 24 - - -
17/09:30am - - - - - SW 35 54 19 29 - - -
17/09:27am - - - - - SSW 35 54 19 29 - - -
17/09:00am - - - - - SSW 32 41 17 22 - - -
17/08:30am - - - - - SSW 35 48 19 26 - - -
17/08:00am - - - - - SW 33 43 18 23 - - -
17/07:30am - - - - - SW 32 41 17 22 - - -
17/07:00am - - - - - SSW 32 44 17 24 - - -
17/06:30am - - - - - SSW 32 43 17 23 - - -
17/06:00am - - - - - SSW 33 46 18 25 - - -
17/05:30am - - - - - SSW 37 50 20 27 - - -
17/05:00am - - - - - SSW 33 44 18 24 - - -
17/04:30am - - - - - SSW 33 46 18 25 - - -
17/04:00am - - - - - SSW 37 52 20 28 - - -
17/03:30am - - - - - SSW 35 54 19 29 - - -
17/03:26am - - - - - SSW 35 54 19 29 - - -
17/03:00am - - - - - SSW 37 50 20 27 - - -
17/02:40am - - - - - SSW 35 54 19 29 - - -
17/02:30am - - - - - SSW 37 50 20 27 - - -
17/02:02am - - - - - SSW 35 54 19 29 - - -
17/02:00am - - - - - SSW 37 54 20 29 - - -
17/01:47am - - - - - S 33 52 18 28 - - -
17/01:30am - - - - - S 35 48 19 26 - - -
17/01:07am - - - - - S 33 52 18 28 - - -
17/01:00am - - - - - S 37 52 20 28 - - -
17/12:30am - - - - - S 33 52 18 28 - - -
17/12:01am - - - - - S 35 54 19 29 - - -
17/12:00am - - - - - S 37 54 20 29 - - -
 
Date/Time
EST
Temp
°C
App
Temp
°C
Dew
Point
°C
Rel
Hum
%
Delta-T
°C
Wind Press
QNH
hPa
Press
MSL
hPa
Rain since
9am
mm
Dir  Spd
km/h
Gust
km/h
Spd
kts
Gust
kts
16/11:52pm - - - - - S 35 54 19 29 - - -
16/11:30pm - - - - - S 24 35 13 19 - - -
16/11:00pm - - - - - S 33 44 18 24 - - -
16/10:30pm - - - - - S 30 44 16 24 - - -
16/10:00pm - - - - - SSE 30 41 16 22 - - -
16/09:30pm - - - - - SSE 26 32 14 17 - - -
16/09:00pm - - - - - S 30 43 16 23 - - -
16/08:40pm - - - - - SSE 30 48 16 26 - - -
16/08:30pm - - - - - SSE 26 37 14 20 - - -
16/08:00pm - - - - - SSE 26 41 14 22 - - -
16/07:30pm - - - - - SSE 28 39 15 21 - - -
16/07:00pm - - - - - S 33 46 18 25 - - -
16/06:30pm - - - - - S 35 50 19 27 - - -
16/06:00pm - - - - - S 32 50 17 27 - - -
16/05:30pm - - - - - SSE 35 54 19 29 - - -
16/05:00pm - - - - - SSE 35 54 19 29 - - -
16/04:54pm - - - - - SSE 35 54 19 29 - - -
16/04:30pm - - - - - SSE 35 50 19 27 - - -
16/04:05pm - - - - - SSE 39 57 21 31 - - -
16/04:00pm - - - - - SSE 41 54 22 29 - - -
16/03:30pm - - - - - S 46 59 25 32 - - -
16/03:07pm - - - - - S 44 63 24 34 - - -
16/03:00pm - - - - - S 46 61 25 33 - - -
16/02:31pm - - - - - SSW 50 72 27 39 - - -
16/02:30pm - - - - - SSW 48 65 26 35 - - -
16/02:09pm - - - - - SSW 46 69 25 37 - - -
16/02:00pm - - - - - SSW 46 59 25 32 - - -
16/01:51pm - - - - - SE 24 59 13 32 - - -
16/01:50pm - - - - - ESE 20 44 11 24 - - -
16/01:30pm - - - - - E 15 19 8 10 - - -
16/01:00pm - - - - - ENE 17 22 9 12 - - -
16/12:30pm - - - - - E 13 15 7 8 - - -
16/12:00pm - - - - - ESE 7 9 4 5 - - -
16/11:30am - - - - - NE 6 9 3 5 - - -
16/11:00am - - - - - CALM 0 0 0 0 - - -
16/10:30am - - - - - S 2 7 1 4 - - -
16/10:00am - - - - - S 2 6 1 3 - - -
16/09:30am - - - - - S 9 11 5 6 - - -
16/09:00am - - - - - N 9 11 5 6 - - -
16/08:30am - - - - - N 4 7 2 4 - - -
16/08:00am - - - - - NNW 7 9 4 5 - - -
16/07:30am - - - - - NNW 9 13 5 7 - - -
16/07:00am - - - - - W 13 17 7 9 - - -
16/06:30am - - - - - NNW 11 13 6 7 - - -
16/06:00am - - - - - NNW 7 11 4 6 - - -
16/05:30am - - - - - NNW 9 11 5 6 - - -
16/05:00am - - - - - NNW 9 11 5 6 - - -
16/04:30am - - - - - NNW 9 13 5 7 - - -
16/04:00am - - - - - N 9 11 5 6 - - -
16/03:30am - - - - - NNW 7 9 4 5 - - -
16/03:00am - - - - - NW 7 9 4 5 - - -
16/02:30am - - - - - W 2 7 1 4 - - -
16/02:00am - - - - - NNW 7 9 4 5 - - -
16/01:30am - - - - - CALM 0 0 0 0 - - -
16/01:00am - - - - - NNW 2 6 1 3 - - -
16/12:30am - - - - - NNW 6 7 3 4 - - -
16/12:00am - - - - - NNW 2 6 1 3 - - -
 
Date/Time
EST
Temp
°C
App
Temp
°C
Dew
Point
°C
Rel
Hum
%
Delta-T
°C
Wind Press
QNH
hPa
Press
MSL
hPa
Rain since
9am
mm
Dir  Spd
km/h
Gust
km/h
Spd
kts
Gust
kts
15/11:30pm - - - - - CALM 0 0 0 0 - - -
15/11:00pm - - - - - WNW 7 9 4 5 - - -
15/10:30pm - - - - - WNW 7 9 4 5 - - -
15/10:00pm - - - - - N 17 19 9 10 - - -
15/09:30pm - - - - - N 13 17 7 9 - - -
15/09:00pm - - - - - NNE 7 9 4 5 - - -
15/08:30pm - - - - - NE 7 9 4 5 - - -
15/08:00pm - - - - - NE 9 9 5 5 - - -
15/07:30pm - - - - - NE 9 11 5 6 - - -
15/07:00pm - - - - - NNE 11 15 6 8 - - -
15/06:30pm - - - - - NNE 19 22 10 12 - - -
15/06:00pm - - - - - NE 20 22 11 12 - - -
15/05:30pm - - - - - NE 24 26 13 14 - - -
15/05:00pm - - - - - NE 26 30 14 16 - - -
15/04:30pm - - - - - NE 28 33 15 18 - - -
15/04:00pm - - - - - NE 30 33 16 18 - - -
15/03:30pm - - - - - NE 32 35 17 19 - - -
15/03:00pm - - - - - NE 30 33 16 18 - - -
15/02:30pm - - - - - NE 24 28 13 15 - - -
15/02:00pm - - - - - ENE 20 24 11 13 - - -
15/01:30pm - - - - - E 20 22 11 12 - - -
15/01:00pm - - - - - ENE 13 15 7 8 - - -
15/12:30pm - - - - - NE 6 9 3 5 - - -
15/12:00pm - - - - - WNW 9 11 5 6 - - -
15/11:30am - - - - - NW 9 13 5 7 - - -
15/11:00am - - - - - NNW 15 17 8 9 - - -
15/10:30am - - - - - NW 19 22 10 12 - - -
15/10:00am - - - - - NW 17 20 9 11 - - -
15/09:30am - - - - - NW 19 22 10 12 - - -

Latest Capital City Observations: Canberra | Sydney | Melbourne | Brisbane | Adelaide | Perth | Hobart | Darwin

Other formats

Comma delimited format used in spreadsheet applications
http://www.bom.gov.au/fwo/IDN60901/IDN60901.95756.axf

JavaScript Object Notation format (JSON) in row-major order
http://www.bom.gov.au/fwo/IDN60901/IDN60901.95756.json

Data quality

Most of these data are generated automatically and are frequently updated. Quality checks on data are not normally performed. It is possible for incorrect values to appear. Refer to information at About Latest Weather Observations and please check the disclaimer before using these data.